sensor_id;sensor_type;location;lat;lon;timestamp;P1;durP1;ratioP1;P2;durP2;ratioP2
12888;SDS011;56848;49.896;11.424;2023-02-27T05:01:46;3.45;;;2.20;;
12888;SDS011;56848;49.896;11.424;2023-02-27T05:04:18;2.55;;;2.22;;
12888;SDS011;56848;49.896;11.424;2023-02-27T05:06:46;2.97;;;1.70;;
12888;SDS011;56848;49.896;11.424;2023-02-27T05:09:15;2.60;;;1.90;;
12888;SDS011;56848;49.896;11.424;2023-02-27T05:14:38;5.10;;;2.00;;
12888;SDS011;56848;49.896;11.424;2023-02-27T05:17:14;2.30;;;2.10;;
12888;SDS011;56848;49.896;11.424;2023-02-27T05:19:44;7.93;;;1.95;;
12888;SDS011;56848;49.896;11.424;2023-02-27T05:22:14;4.57;;;2.50;;
12888;SDS011;56848;49.896;11.424;2023-02-27T05:27:46;3.92;;;1.75;;
12888;SDS011;56848;49.896;11.424;2023-02-27T05:30:36;3.08;;;1.77;;
12888;SDS011;56848;49.896;11.424;2023-02-27T05:33:29;2.17;;;2.08;;
12888;SDS011;56848;49.896;11.424;2023-02-27T05:35:59;4.40;;;1.70;;
12888;SDS011;56848;49.896;11.424;2023-02-27T05:38:36;4.07;;;2.65;;
12888;SDS011;56848;49.896;11.424;2023-02-27T05:41:07;4.93;;;2.67;;
12888;SDS011;56848;49.896;11.424;2023-02-27T05:43:39;2.22;;;2.00;;
12888;SDS011;56848;49.896;11.424;2023-02-27T05:46:29;3.95;;;2.35;;
12888;SDS011;56848;49.896;11.424;2023-02-27T05:49:00;4.43;;;2.60;;
12888;SDS011;56848;49.896;11.424;2023-02-27T05:51:32;4.47;;;2.10;;
12888;SDS011;56848;49.896;11.424;2023-02-27T05:54:02;3.15;;;2.20;;
12888;SDS011;56848;49.896;11.424;2023-02-27T05:56:32;3.95;;;1.85;;
12888;SDS011;56848;49.896;11.424;2023-02-27T05:59:01;3.90;;;1.83;;
12888;SDS011;56848;49.896;11.424;2023-02-27T06:01:32;10.07;;;2.83;;
12888;SDS011;56848;49.896;11.424;2023-02-27T06:03:58;4.17;;;2.50;;
12888;SDS011;56848;49.896;11.424;2023-02-27T06:06:24;6.20;;;2.70;;
12888;SDS011;56848;49.896;11.424;2023-02-27T06:08:50;11.83;;;2.40;;
12888;SDS011;56848;49.896;11.424;2023-02-27T06:11:15;4.23;;;2.60;;
12888;SDS011;56848;49.896;11.424;2023-02-27T06:13:41;10.15;;;3.10;;
12888;SDS011;56848;49.896;11.424;2023-02-27T06:16:11;7.73;;;3.07;;
12888;SDS011;56848;49.896;11.424;2023-02-27T06:18:38;4.72;;;3.10;;
12888;SDS011;56848;49.896;11.424;2023-02-27T06:21:04;4.37;;;2.90;;
12888;SDS011;56848;49.896;11.424;2023-02-27T06:23:30;2.38;;;2.15;;
12888;SDS011;56848;49.896;11.424;2023-02-27T06:25:56;4.43;;;3.00;;
12888;SDS011;56848;49.896;11.424;2023-02-27T06:28:22;6.30;;;3.30;;
12888;SDS011;56848;49.896;11.424;2023-02-27T06:30:51;6.50;;;3.00;;
12888;SDS011;56848;49.896;11.424;2023-02-27T06:33:17;6.40;;;3.55;;
12888;SDS011;56848;49.896;11.424;2023-02-27T06:35:43;9.33;;;4.03;;
12888;SDS011;56848;49.896;11.424;2023-02-27T06:38:11;8.70;;;4.00;;
12888;SDS011;56848;49.896;11.424;2023-02-27T06:40:36;7.70;;;3.83;;
12888;SDS011;56848;49.896;11.424;2023-02-27T06:43:02;13.80;;;3.60;;
12888;SDS011;56848;49.896;11.424;2023-02-27T06:45:28;5.97;;;3.60;;
12888;SDS011;56848;49.896;11.424;2023-02-27T06:47:53;6.80;;;4.30;;
12888;SDS011;56848;49.896;11.424;2023-02-27T06:50:19;6.53;;;4.27;;
12888;SDS011;56848;49.896;11.424;2023-02-27T06:52:44;9.37;;;3.83;;
12888;SDS011;56848;49.896;11.424;2023-02-27T06:55:10;11.30;;;3.90;;
12888;SDS011;56848;49.896;11.424;2023-02-27T06:57:36;8.40;;;4.13;;
12888;SDS011;56848;49.896;11.424;2023-02-27T07:00:02;6.67;;;3.53;;
12888;SDS011;56848;49.896;11.424;2023-02-27T07:02:29;4.30;;;3.35;;
12888;SDS011;56848;49.896;11.424;2023-02-27T07:04:54;10.70;;;3.73;;
12888;SDS011;56848;49.896;11.424;2023-02-27T07:07:20;6.80;;;2.53;;
12888;SDS011;56848;49.896;11.424;2023-02-27T07:09:45;6.73;;;2.30;;
12888;SDS011;56848;49.896;11.424;2023-02-27T07:12:12;1.50;;;1.40;;
12888;SDS011;56848;49.896;11.424;2023-02-27T07:14:38;3.97;;;2.23;;
12888;SDS011;56848;49.896;11.424;2023-02-27T07:17:03;3.10;;;1.80;;
12888;SDS011;56848;49.896;11.424;2023-02-27T07:19:30;1.67;;;1.57;;
12888;SDS011;56848;49.896;11.424;2023-02-27T07:21:56;4.35;;;2.92;;
12888;SDS011;56848;49.896;11.424;2023-02-27T07:24:22;5.83;;;1.87;;
12888;SDS011;56848;49.896;11.424;2023-02-27T07:26:47;1.17;;;0.90;;
12888;SDS011;56848;49.896;11.424;2023-02-27T07:29:13;2.40;;;2.20;;
12888;SDS011;56848;49.896;11.424;2023-02-27T07:31:39;1.90;;;1.73;;
12888;SDS011;56848;49.896;11.424;2023-02-27T07:34:05;3.38;;;2.90;;
12888;SDS011;56848;49.896;11.424;2023-02-27T07:36:30;0.80;;;0.80;;
12888;SDS011;56848;49.896;11.424;2023-02-27T07:38:56;6.68;;;3.40;;
12888;SDS011;56848;49.896;11.424;2023-02-27T07:41:22;6.13;;;2.67;;
12888;SDS011;56848;49.896;11.424;2023-02-27T07:43:48;4.17;;;2.67;;
12888;SDS011;56848;49.896;11.424;2023-02-27T07:46:14;1.30;;;1.30;;
12888;SDS011;56848;49.896;11.424;2023-02-27T07:48:40;2.70;;;2.25;;
12888;SDS011;56848;49.896;11.424;2023-02-27T07:51:06;2.97;;;1.83;;
12888;SDS011;56848;49.896;11.424;2023-02-27T07:53:31;2.47;;;1.77;;
12888;SDS011;56848;49.896;11.424;2023-02-27T07:55:57;2.93;;;2.50;;
12888;SDS011;56848;49.896;11.424;2023-02-27T07:58:23;3.13;;;2.03;;
12888;SDS011;56848;49.896;11.424;2023-02-27T08:00:48;5.13;;;1.83;;
12888;SDS011;56848;49.896;11.424;2023-02-27T08:03:14;0.67;;;0.67;;
12888;SDS011;56848;49.896;11.424;2023-02-27T08:05:39;2.07;;;1.70;;
12888;SDS011;56848;49.896;11.424;2023-02-27T08:08:05;1.00;;;1.00;;
12888;SDS011;56848;49.896;11.424;2023-02-27T08:10:30;0.93;;;0.90;;
12888;SDS011;56848;49.896;11.424;2023-02-27T08:12:56;1.97;;;1.87;;
12888;SDS011;56848;49.896;11.424;2023-02-27T08:15:22;1.53;;;1.10;;
12888;SDS011;56848;49.896;11.424;2023-02-27T08:17:48;1.20;;;1.10;;
12888;SDS011;56848;49.896;11.424;2023-02-27T08:20:14;0.80;;;0.73;;
12888;SDS011;56848;49.896;11.424;2023-02-27T08:22:40;0.82;;;0.82;;
12888;SDS011;56848;49.896;11.424;2023-02-27T08:25:06;2.97;;;2.00;;
12888;SDS011;56848;49.896;11.424;2023-02-27T08:27:35;1.98;;;1.20;;
12888;SDS011;56848;49.896;11.424;2023-02-27T08:30:02;1.88;;;1.77;;
12888;SDS011;56848;49.896;11.424;2023-02-27T08:32:32;4.05;;;1.85;;
12888;SDS011;56848;49.896;11.424;2023-02-27T08:34:57;1.73;;;1.07;;
12888;SDS011;56848;49.896;11.424;2023-02-27T08:37:23;1.53;;;1.20;;
12888;SDS011;56848;49.896;11.424;2023-02-27T08:39:49;2.60;;;2.40;;
12888;SDS011;56848;49.896;11.424;2023-02-27T08:42:14;2.50;;;0.93;;
12888;SDS011;56848;49.896;11.424;2023-02-27T08:44:40;0.87;;;0.87;;
12888;SDS011;56848;49.896;11.424;2023-02-27T08:47:06;1.63;;;0.93;;
12888;SDS011;56848;49.896;11.424;2023-02-27T08:49:31;2.37;;;0.90;;
12888;SDS011;56848;49.896;11.424;2023-02-27T08:51:57;1.10;;;1.00;;
12888;SDS011;56848;49.896;11.424;2023-02-27T08:54:22;2.80;;;1.40;;
12888;SDS011;56848;49.896;11.424;2023-02-27T08:56:48;1.80;;;1.63;;
12888;SDS011;56848;49.896;11.424;2023-02-27T08:59:14;1.07;;;1.00;;
12888;SDS011;56848;49.896;11.424;2023-02-27T09:01:40;1.52;;;1.30;;
12888;SDS011;56848;49.896;11.424;2023-02-27T09:04:06;1.05;;;1.05;;
12888;SDS011;56848;49.896;11.424;2023-02-27T09:06:32;0.97;;;0.97;;
12888;SDS011;56848;49.896;11.424;2023-02-27T09:08:59;1.00;;;1.00;;
12888;SDS011;56848;49.896;11.424;2023-02-27T09:11:25;1.07;;;1.07;;
12888;SDS011;56848;49.896;11.424;2023-02-27T09:13:52;2.88;;;1.10;;
12888;SDS011;56848;49.896;11.424;2023-02-27T09:16:19;0.75;;;0.75;;
12888;SDS011;56848;49.896;11.424;2023-02-27T09:18:45;1.80;;;1.60;;
12888;SDS011;56848;49.896;11.424;2023-02-27T09:21:11;10.73;;;1.50;;
12888;SDS011;56848;49.896;11.424;2023-02-27T09:23:37;4.60;;;1.57;;
12888;SDS011;56848;49.896;11.424;2023-02-27T09:26:03;1.73;;;0.90;;
12888;SDS011;56848;49.896;11.424;2023-02-27T09:28:29;1.52;;;1.10;;
12888;SDS011;56848;49.896;11.424;2023-02-27T09:30:59;6.77;;;1.50;;
12888;SDS011;56848;49.896;11.424;2023-02-27T09:33:27;0.88;;;0.88;;
12888;SDS011;56848;49.896;11.424;2023-02-27T09:35:53;4.20;;;1.97;;
12888;SDS011;56848;49.896;11.424;2023-02-27T09:38:19;1.75;;;1.55;;
12888;SDS011;56848;49.896;11.424;2023-02-27T09:40:45;0.70;;;0.70;;
12888;SDS011;56848;49.896;11.424;2023-02-27T09:43:18;1.45;;;1.35;;
12888;SDS011;56848;49.896;11.424;2023-02-27T09:45:50;1.55;;;1.20;;
12888;SDS011;56848;49.896;11.424;2023-02-27T09:48:29;1.17;;;1.00;;
12888;SDS011;56848;49.896;11.424;2023-02-27T09:50:58;2.65;;;1.65;;
12888;SDS011;56848;49.896;11.424;2023-02-27T09:53:27;1.33;;;0.80;;
12888;SDS011;56848;49.896;11.424;2023-02-27T09:56:06;1.67;;;1.30;;
12888;SDS011;56848;49.896;11.424;2023-02-27T09:58:52;1.33;;;1.20;;
12888;SDS011;56848;49.896;11.424;2023-02-27T10:01:22;1.45;;;1.35;;
12888;SDS011;56848;49.896;11.424;2023-02-27T10:04:10;1.10;;;1.10;;
12888;SDS011;56848;49.896;11.424;2023-02-27T10:18:36;1.30;;;1.30;;
12888;SDS011;56848;49.896;11.424;2023-02-27T10:21:14;1.77;;;1.33;;
12888;SDS011;56848;49.896;11.424;2023-02-27T10:23:48;3.78;;;1.60;;
12888;SDS011;56848;49.896;11.424;2023-02-27T10:26:24;1.63;;;1.52;;
12888;SDS011;56848;49.896;11.424;2023-02-27T10:28:54;2.38;;;1.38;;
12888;SDS011;56848;49.896;11.424;2023-02-27T10:31:25;3.38;;;1.70;;
12888;SDS011;56848;49.896;11.424;2023-02-27T10:33:55;1.23;;;1.13;;
12888;SDS011;56848;49.896;11.424;2023-02-27T10:36:21;5.30;;;1.15;;
12888;SDS011;56848;49.896;11.424;2023-02-27T10:38:51;4.10;;;1.30;;
12888;SDS011;56848;49.896;11.424;2023-02-27T10:41:22;1.70;;;1.10;;
12888;SDS011;56848;49.896;11.424;2023-02-27T10:43:49;1.50;;;1.27;;
12888;SDS011;56848;49.896;11.424;2023-02-27T10:46:24;2.33;;;1.50;;
12888;SDS011;56848;49.896;11.424;2023-02-27T10:48:56;9.27;;;1.40;;
12888;SDS011;56848;49.896;11.424;2023-02-27T10:51:31;1.77;;;1.50;;
12888;SDS011;56848;49.896;11.424;2023-02-27T10:54:21;1.10;;;1.00;;
12888;SDS011;56848;49.896;11.424;2023-02-27T10:56:51;3.47;;;1.20;;
12888;SDS011;56848;49.896;11.424;2023-02-27T10:59:22;3.58;;;1.63;;
12888;SDS011;56848;49.896;11.424;2023-02-27T11:01:50;2.60;;;1.25;;
12888;SDS011;56848;49.896;11.424;2023-02-27T11:04:25;1.52;;;1.40;;
12888;SDS011;56848;49.896;11.424;2023-02-27T11:07:04;1.40;;;1.30;;
12888;SDS011;56848;49.896;11.424;2023-02-27T11:09:33;0.87;;;0.87;;
12888;SDS011;56848;49.896;11.424;2023-02-27T11:14:56;0.80;;;0.80;;
12888;SDS011;56848;49.896;11.424;2023-02-27T11:17:30;0.80;;;0.80;;
12888;SDS011;56848;49.896;11.424;2023-02-27T11:19:58;2.40;;;1.10;;
12888;SDS011;56848;49.896;11.424;2023-02-27T11:22:27;0.95;;;0.85;;
12888;SDS011;56848;49.896;11.424;2023-02-27T11:28:11;1.38;;;1.15;;
12888;SDS011;56848;49.896;11.424;2023-02-27T11:30:57;2.50;;;1.35;;
12888;SDS011;56848;49.896;11.424;2023-02-27T11:33:26;1.83;;;1.10;;
12888;SDS011;56848;49.896;11.424;2023-02-27T11:35:54;1.00;;;1.00;;
12888;SDS011;56848;49.896;11.424;2023-02-27T11:38:22;1.45;;;1.27;;
12888;SDS011;56848;49.896;11.424;2023-02-27T11:40:53;2.88;;;1.30;;
12888;SDS011;56848;49.896;11.424;2023-02-27T11:43:20;3.13;;;1.10;;
12888;SDS011;56848;49.896;11.424;2023-02-27T11:45:50;1.33;;;1.10;;
12888;SDS011;56848;49.896;11.424;2023-02-27T11:50:52;1.25;;;1.15;;
12888;SDS011;56848;49.896;11.424;2023-02-27T11:56:03;1.67;;;0.90;;
12888;SDS011;56848;49.896;11.424;2023-02-27T11:58:36;7.57;;;1.15;;
12888;SDS011;56848;49.896;11.424;2023-02-27T12:01:08;1.20;;;1.10;;
12888;SDS011;56848;49.896;11.424;2023-02-27T12:03:56;1.48;;;1.20;;
12888;SDS011;56848;49.896;11.424;2023-02-27T12:06:39;1.83;;;1.20;;
12888;SDS011;56848;49.896;11.424;2023-02-27T12:09:34;0.90;;;0.90;;
12888;SDS011;56848;49.896;11.424;2023-02-27T12:12:00;1.15;;;0.90;;
12888;SDS011;56848;49.896;11.424;2023-02-27T12:14:32;2.70;;;1.40;;
12888;SDS011;56848;49.896;11.424;2023-02-27T12:17:08;1.50;;;1.20;;
12888;SDS011;56848;49.896;11.424;2023-02-27T12:19:48;2.15;;;0.90;;
12888;SDS011;56848;49.896;11.424;2023-02-27T12:22:30;1.43;;;1.00;;
12888;SDS011;56848;49.896;11.424;2023-02-27T12:25:05;1.40;;;1.10;;
12888;SDS011;56848;49.896;11.424;2023-02-27T12:30:58;1.50;;;0.82;;
12888;SDS011;56848;49.896;11.424;2023-02-27T12:33:45;1.00;;;0.90;;
12888;SDS011;56848;49.896;11.424;2023-02-27T12:36:19;0.80;;;0.80;;
12888;SDS011;56848;49.896;11.424;2023-02-27T12:38:44;0.80;;;0.80;;
12888;SDS011;56848;49.896;11.424;2023-02-27T12:41:14;1.10;;;1.10;;
12888;SDS011;56848;49.896;11.424;2023-02-27T12:44:21;1.60;;;1.33;;
12888;SDS011;56848;49.896;11.424;2023-02-27T12:52:28;0.95;;;0.90;;
12888;SDS011;56848;49.896;11.424;2023-02-27T13:08:08;1.00;;;0.90;;
12888;SDS011;56848;49.896;11.424;2023-02-27T13:13:43;1.42;;;1.30;;
12888;SDS011;56848;49.896;11.424;2023-02-27T13:19:00;2.67;;;1.42;;
12888;SDS011;56848;49.896;11.424;2023-02-27T13:21:31;1.35;;;1.10;;
12888;SDS011;56848;49.896;11.424;2023-02-27T13:24:14;5.10;;;1.52;;
12888;SDS011;56848;49.896;11.424;2023-02-27T13:26:45;0.85;;;0.85;;
12888;SDS011;56848;49.896;11.424;2023-02-27T13:29:16;1.20;;;1.20;;
12888;SDS011;56848;49.896;11.424;2023-02-27T13:31:49;1.52;;;1.40;;
12888;SDS011;56848;49.896;11.424;2023-02-27T13:34:29;1.75;;;1.50;;
12888;SDS011;56848;49.896;11.424;2023-02-27T13:37:02;1.95;;;1.45;;
12888;SDS011;56848;49.896;11.424;2023-02-27T13:39:36;2.10;;;1.90;;
12888;SDS011;56848;49.896;11.424;2023-02-27T13:44:56;2.60;;;1.40;;
12888;SDS011;56848;49.896;11.424;2023-02-27T13:47:48;1.13;;;1.02;;
12888;SDS011;56848;49.896;11.424;2023-02-27T13:52:42;2.05;;;1.00;;
12888;SDS011;56848;49.896;11.424;2023-02-27T13:58:12;1.90;;;1.45;;
12888;SDS011;56848;49.896;11.424;2023-02-27T14:00:41;0.93;;;0.93;;
12888;SDS011;56848;49.896;11.424;2023-02-27T14:03:17;1.43;;;1.33;;
12888;SDS011;56848;49.896;11.424;2023-02-27T14:05:46;0.75;;;0.75;;
12888;SDS011;56848;49.896;11.424;2023-02-27T14:08:18;1.80;;;1.60;;
12888;SDS011;56848;49.896;11.424;2023-02-27T14:11:14;1.92;;;1.70;;
12888;SDS011;56848;49.896;11.424;2023-02-27T14:19:02;0.90;;;0.90;;
12888;SDS011;56848;49.896;11.424;2023-02-27T14:24:55;1.42;;;1.38;;
12888;SDS011;56848;49.896;11.424;2023-02-27T14:27:55;1.15;;;0.98;;
12888;SDS011;56848;49.896;11.424;2023-02-27T14:30:39;0.90;;;0.90;;
12888;SDS011;56848;49.896;11.424;2023-02-27T14:33:13;1.80;;;1.00;;
12888;SDS011;56848;49.896;11.424;2023-02-27T14:35:45;1.60;;;1.50;;
12888;SDS011;56848;49.896;11.424;2023-02-27T14:38:17;1.35;;;1.25;;
12888;SDS011;56848;49.896;11.424;2023-02-27T14:40:52;1.25;;;1.15;;
12888;SDS011;56848;49.896;11.424;2023-02-27T14:43:28;2.17;;;1.90;;
12888;SDS011;56848;49.896;11.424;2023-02-27T14:48:51;1.30;;;1.02;;
12888;SDS011;56848;49.896;11.424;2023-02-27T14:51:21;3.70;;;2.53;;
12888;SDS011;56848;49.896;11.424;2023-02-27T14:56:56;1.63;;;1.40;;
12888;SDS011;56848;49.896;11.424;2023-02-27T15:01:57;1.67;;;1.58;;
12888;SDS011;56848;49.896;11.424;2023-02-27T15:04:26;0.98;;;0.98;;
12888;SDS011;56848;49.896;11.424;2023-02-27T15:06:53;1.95;;;1.20;;
12888;SDS011;56848;49.896;11.424;2023-02-27T15:11:47;1.35;;;1.25;;
12888;SDS011;56848;49.896;11.424;2023-02-27T15:14:18;0.88;;;0.88;;
12888;SDS011;56848;49.896;11.424;2023-02-27T15:16:49;8.60;;;1.67;;
12888;SDS011;56848;49.896;11.424;2023-02-27T15:19:19;12.75;;;1.40;;
12888;SDS011;56848;49.896;11.424;2023-02-27T15:21:50;1.35;;;1.25;;
12888;SDS011;56848;49.896;11.424;2023-02-27T15:26:46;0.77;;;0.77;;
12888;SDS011;56848;49.896;11.424;2023-02-27T15:29:16;1.00;;;0.88;;
12888;SDS011;56848;49.896;11.424;2023-02-27T15:31:47;5.50;;;1.35;;
12888;SDS011;56848;49.896;11.424;2023-02-27T15:34:13;1.02;;;0.93;;
12888;SDS011;56848;49.896;11.424;2023-02-27T15:36:42;2.73;;;2.00;;
12888;SDS011;56848;49.896;11.424;2023-02-27T15:39:21;1.30;;;1.20;;
12888;SDS011;56848;49.896;11.424;2023-02-27T15:41:53;1.05;;;1.05;;
12888;SDS011;56848;49.896;11.424;2023-02-27T15:44:24;3.97;;;1.90;;
12888;SDS011;56848;49.896;11.424;2023-02-27T15:46:53;1.50;;;1.40;;
12888;SDS011;56848;49.896;11.424;2023-02-27T15:49:19;1.45;;;1.35;;
12888;SDS011;56848;49.896;11.424;2023-02-27T15:51:52;1.48;;;1.40;;
12888;SDS011;56848;49.896;11.424;2023-02-27T15:54:21;6.53;;;2.60;;
12888;SDS011;56848;49.896;11.424;2023-02-27T15:56:47;1.53;;;1.43;;
12888;SDS011;56848;49.896;11.424;2023-02-27T15:59:14;1.47;;;1.37;;
12888;SDS011;56848;49.896;11.424;2023-02-27T16:01:41;2.45;;;2.25;;
12888;SDS011;56848;49.896;11.424;2023-02-27T16:04:43;3.70;;;1.33;;
12888;SDS011;56848;49.896;11.424;2023-02-27T16:07:02;7.57;;;2.30;;
12888;SDS011;56848;49.896;11.424;2023-02-27T16:09:31;1.70;;;1.25;;
12888;SDS011;56848;49.896;11.424;2023-02-27T16:12:18;1.67;;;1.40;;
12888;SDS011;56848;49.896;11.424;2023-02-27T16:14:52;2.58;;;1.83;;
12888;SDS011;56848;49.896;11.424;2023-02-27T16:17:33;2.83;;;2.05;;
12888;SDS011;56848;49.896;11.424;2023-02-27T16:20:01;2.97;;;2.77;;
12888;SDS011;56848;49.896;11.424;2023-02-27T16:23:12;1.70;;;1.60;;
12888;SDS011;56848;49.896;11.424;2023-02-27T16:26:05;8.00;;;2.63;;
12888;SDS011;56848;49.896;11.424;2023-02-27T16:31:36;1.92;;;1.83;;
12888;SDS011;56848;49.896;11.424;2023-02-27T16:34:14;1.40;;;1.30;;
12888;SDS011;56848;49.896;11.424;2023-02-27T16:36:57;1.80;;;1.70;;
12888;SDS011;56848;49.896;11.424;2023-02-27T16:39:25;3.55;;;2.20;;
12888;SDS011;56848;49.896;11.424;2023-02-27T16:41:52;4.05;;;1.60;;
12888;SDS011;56848;49.896;11.424;2023-02-27T16:44:18;7.40;;;2.25;;
12888;SDS011;56848;49.896;11.424;2023-02-27T16:46:45;5.07;;;2.00;;
12888;SDS011;56848;49.896;11.424;2023-02-27T16:49:17;1.55;;;1.45;;
12888;SDS011;56848;49.896;11.424;2023-02-27T16:51:51;4.07;;;2.72;;
12888;SDS011;56848;49.896;11.424;2023-02-27T16:54:17;1.97;;;1.43;;
12888;SDS011;56848;49.896;11.424;2023-02-27T16:56:43;1.30;;;1.20;;
12888;SDS011;56848;49.896;11.424;2023-02-27T16:59:28;3.13;;;1.65;;
12888;SDS011;56848;49.896;11.424;2023-02-27T17:02:03;2.92;;;1.88;;
12888;SDS011;56848;49.896;11.424;2023-02-27T17:04:31;2.35;;;1.90;;
12888;SDS011;56848;49.896;11.424;2023-02-27T17:06:57;3.70;;;2.50;;
12888;SDS011;56848;49.896;11.424;2023-02-27T17:09:24;3.58;;;1.80;;
12888;SDS011;56848;49.896;11.424;2023-02-27T17:11:53;2.22;;;1.70;;
12888;SDS011;56848;49.896;11.424;2023-02-27T17:14:20;1.92;;;1.70;;
12888;SDS011;56848;49.896;11.424;2023-02-27T17:16:46;4.85;;;2.85;;
12888;SDS011;56848;49.896;11.424;2023-02-27T17:19:14;5.05;;;2.90;;
12888;SDS011;56848;49.896;11.424;2023-02-27T17:21:40;2.85;;;1.63;;
12888;SDS011;56848;49.896;11.424;2023-02-27T17:24:06;3.30;;;2.40;;
12888;SDS011;56848;49.896;11.424;2023-02-27T17:26:32;2.05;;;1.85;;
12888;SDS011;56848;49.896;11.424;2023-02-27T17:28:59;4.38;;;3.45;;
12888;SDS011;56848;49.896;11.424;2023-02-27T17:31:26;6.85;;;2.20;;
12888;SDS011;56848;49.896;11.424;2023-02-27T17:33:52;2.10;;;1.77;;
12888;SDS011;56848;49.896;11.424;2023-02-27T17:36:18;4.93;;;2.13;;
12888;SDS011;56848;49.896;11.424;2023-02-27T17:38:44;2.25;;;1.48;;
12888;SDS011;56848;49.896;11.424;2023-02-27T17:41:12;2.35;;;1.80;;
12888;SDS011;56848;49.896;11.424;2023-02-27T17:43:38;2.10;;;1.95;;
12888;SDS011;56848;49.896;11.424;2023-02-27T17:46:06;2.03;;;1.83;;
12888;SDS011;56848;49.896;11.424;2023-02-27T17:48:33;2.15;;;1.83;;
12888;SDS011;56848;49.896;11.424;2023-02-27T17:51:09;1.13;;;1.02;;
12888;SDS011;56848;49.896;11.424;2023-02-27T17:53:36;2.47;;;1.88;;
12888;SDS011;56848;49.896;11.424;2023-02-27T17:56:02;4.40;;;2.65;;
12888;SDS011;56848;49.896;11.424;2023-02-27T17:58:29;5.22;;;3.00;;
12888;SDS011;56848;49.896;11.424;2023-02-27T18:01:29;6.75;;;2.63;;
12888;SDS011;56848;49.896;11.424;2023-02-27T18:03:50;3.58;;;2.40;;
12888;SDS011;56848;49.896;11.424;2023-02-27T18:06:16;3.20;;;2.08;;
12888;SDS011;56848;49.896;11.424;2023-02-27T18:08:42;3.70;;;2.63;;
12888;SDS011;56848;49.896;11.424;2023-02-27T18:11:12;5.13;;;2.77;;
12888;SDS011;56848;49.896;11.424;2023-02-27T18:13:41;8.88;;;3.85;;
12888;SDS011;56848;49.896;11.424;2023-02-27T18:16:07;3.65;;;1.85;;
12888;SDS011;56848;49.896;11.424;2023-02-27T18:18:34;5.40;;;3.35;;
12888;SDS011;56848;49.896;11.424;2023-02-27T18:21:06;4.57;;;3.75;;
12888;SDS011;56848;49.896;11.424;2023-02-27T18:23:40;6.10;;;3.05;;
12888;SDS011;56848;49.896;11.424;2023-02-27T18:26:06;5.68;;;2.83;;
12888;SDS011;56848;49.896;11.424;2023-02-27T18:28:32;5.20;;;2.28;;
12888;SDS011;56848;49.896;11.424;2023-02-27T18:30:58;3.67;;;2.53;;
12888;SDS011;56848;49.896;11.424;2023-02-27T18:33:23;3.17;;;1.87;;
12888;SDS011;56848;49.896;11.424;2023-02-27T18:35:49;3.03;;;2.70;;
12888;SDS011;56848;49.896;11.424;2023-02-27T18:38:15;4.73;;;3.40;;
12888;SDS011;56848;49.896;11.424;2023-02-27T18:40:41;5.53;;;2.80;;
12888;SDS011;56848;49.896;11.424;2023-02-27T18:43:07;6.00;;;1.70;;
12888;SDS011;56848;49.896;11.424;2023-02-27T18:45:34;2.53;;;2.30;;
12888;SDS011;56848;49.896;11.424;2023-02-27T18:48:00;2.92;;;2.47;;
12888;SDS011;56848;49.896;11.424;2023-02-27T18:50:26;4.97;;;2.43;;
12888;SDS011;56848;49.896;11.424;2023-02-27T18:52:51;6.03;;;1.70;;
12888;SDS011;56848;49.896;11.424;2023-02-27T18:55:19;1.92;;;1.52;;
12888;SDS011;56848;49.896;11.424;2023-02-27T18:57:46;3.03;;;2.50;;
12888;SDS011;56848;49.896;11.424;2023-02-27T19:00:12;3.53;;;2.17;;
12888;SDS011;56848;49.896;11.424;2023-02-27T19:02:38;6.32;;;3.03;;
12888;SDS011;56848;49.896;11.424;2023-02-27T19:05:05;3.53;;;2.50;;
12888;SDS011;56848;49.896;11.424;2023-02-27T19:07:32;4.38;;;2.97;;
12888;SDS011;56848;49.896;11.424;2023-02-27T19:09:58;3.40;;;3.10;;
12888;SDS011;56848;49.896;11.424;2023-02-27T19:12:24;4.13;;;3.03;;
12888;SDS011;56848;49.896;11.424;2023-02-27T19:14:50;4.20;;;2.67;;
12888;SDS011;56848;49.896;11.424;2023-02-27T19:17:16;3.10;;;2.80;;
12888;SDS011;56848;49.896;11.424;2023-02-27T19:19:41;5.73;;;3.03;;
12888;SDS011;56848;49.896;11.424;2023-02-27T19:22:07;5.10;;;3.43;;
12888;SDS011;56848;49.896;11.424;2023-02-27T19:24:33;8.13;;;4.10;;
12888;SDS011;56848;49.896;11.424;2023-02-27T19:26:58;4.70;;;3.70;;
12888;SDS011;56848;49.896;11.424;2023-02-27T19:29:24;8.50;;;4.77;;
12888;SDS011;56848;49.896;11.424;2023-02-27T19:31:49;7.70;;;4.30;;
12888;SDS011;56848;49.896;11.424;2023-02-27T19:34:15;7.80;;;3.47;;
12888;SDS011;56848;49.896;11.424;2023-02-27T19:36:40;6.23;;;4.73;;
12888;SDS011;56848;49.896;11.424;2023-02-27T19:39:06;8.47;;;3.97;;
12888;SDS011;56848;49.896;11.424;2023-02-27T19:41:32;10.73;;;3.90;;
12888;SDS011;56848;49.896;11.424;2023-02-27T19:43:57;8.10;;;3.83;;
12888;SDS011;56848;49.896;11.424;2023-02-27T19:46:24;5.50;;;3.60;;
12888;SDS011;56848;49.896;11.424;2023-02-27T19:48:52;6.35;;;4.32;;
12888;SDS011;56848;49.896;11.424;2023-02-27T19:51:20;7.90;;;4.35;;
12888;SDS011;56848;49.896;11.424;2023-02-27T19:53:46;6.10;;;4.13;;
12888;SDS011;56848;49.896;11.424;2023-02-27T19:56:18;5.97;;;4.25;;
12888;SDS011;56848;49.896;11.424;2023-02-27T19:58:46;7.07;;;4.40;;
12888;SDS011;56848;49.896;11.424;2023-02-27T20:03:52;5.97;;;4.10;;
12888;SDS011;56848;49.896;11.424;2023-02-27T20:06:20;5.65;;;3.80;;
12888;SDS011;56848;49.896;11.424;2023-02-27T20:08:47;7.90;;;3.70;;
12888;SDS011;56848;49.896;11.424;2023-02-27T20:11:13;6.60;;;3.47;;
12888;SDS011;56848;49.896;11.424;2023-02-27T20:13:41;3.08;;;2.78;;
12888;SDS011;56848;49.896;11.424;2023-02-27T20:16:08;3.30;;;2.17;;
12888;SDS011;56848;49.896;11.424;2023-02-27T20:18:35;3.58;;;2.53;;
12888;SDS011;56848;49.896;11.424;2023-02-27T20:21:09;5.93;;;3.03;;
12888;SDS011;56848;49.896;11.424;2023-02-27T20:23:38;2.92;;;2.10;;
12888;SDS011;56848;49.896;11.424;2023-02-27T20:27:05;7.18;;;3.35;;
12888;SDS011;56848;49.896;11.424;2023-02-27T20:29:05;4.18;;;3.33;;
12888;SDS011;56848;49.896;11.424;2023-02-27T20:31:42;5.15;;;3.20;;
12888;SDS011;56848;49.896;11.424;2023-02-27T20:34:10;6.55;;;3.03;;
12888;SDS011;56848;49.896;11.424;2023-02-27T20:36:39;4.05;;;3.38;;
12888;SDS011;56848;49.896;11.424;2023-02-27T20:39:05;5.90;;;3.10;;
12888;SDS011;56848;49.896;11.424;2023-02-27T20:41:31;6.40;;;3.70;;
12888;SDS011;56848;49.896;11.424;2023-02-27T20:43:58;2.65;;;2.45;;
12888;SDS011;56848;49.896;11.424;2023-02-27T20:46:25;5.47;;;3.00;;
12888;SDS011;56848;49.896;11.424;2023-02-27T20:48:59;3.78;;;3.38;;
12888;SDS011;56848;49.896;11.424;2023-02-27T20:51:27;4.00;;;2.95;;
12888;SDS011;56848;49.896;11.424;2023-02-27T20:53:59;6.78;;;4.25;;
12888;SDS011;56848;49.896;11.424;2023-02-27T20:56:27;11.90;;;5.00;;
12888;SDS011;56848;49.896;11.424;2023-02-27T20:58:54;10.45;;;5.45;;
12888;SDS011;56848;49.896;11.424;2023-02-27T21:01:20;6.57;;;3.83;;
12888;SDS011;56848;49.896;11.424;2023-02-27T21:03:46;9.17;;;4.23;;
12888;SDS011;56848;49.896;11.424;2023-02-27T21:06:14;6.35;;;3.88;;
12888;SDS011;56848;49.896;11.424;2023-02-27T21:08:43;6.18;;;4.20;;
12888;SDS011;56848;49.896;11.424;2023-02-27T21:11:14;4.90;;;4.10;;
